Race Results for…
Run the Vineyards - Mother Day 5K (Sunday)

May 12, 2019 Results presented by Good Day for a Run LLC and timed by JB Sports Timing
Participants:
150
Last Updated:
5/12/2019 10:17:17 AM

Results are preliminary for 3 days

Stats

Leaderboards

Jump to a Leaderboard

SUNDAY 5K

Male - Overall
Bib Name Chip Elapsed Pace City Age
1 3191 STEVE NICOLOSI 00:22:36 07:17 min/mile CLAYTON 45
2 2985 STEVE BROGAN 00:22:46 07:20 min/mile GARNET VALLEY 42
3 3215 CURTIS SAMUELS 00:24:44 07:58 min/mile PENNSVILLE 59
Female - Overall
Bib Name Chip Elapsed Pace City Age
1 3088 SAMANTHA MCNALLY 00:22:13 07:10 min/mile LANCASTER 32
2 3141 CHARLENE SMITH 00:22:14 07:10 min/mile MOUNT JOY 35
3 3020 CATHERINE DISABATINO 00:24:34 07:55 min/mile WILMINGTON 37

Overall Results

Tip: Swipe the results table to view more.
152 entrants …
Sunday 5K Results
Race Place Bib Name Chip Elapsed Pace Age Age Place Gender Gender Place City
1 3088 SAMANTHA MCNALLY 00:22:13 07:10 min/mile 32 O/A F 1 LANCASTER
2 3141 CHARLENE SMITH 00:22:14 07:10 min/mile 35 O/A F 2 MOUNT JOY
3 3191 STEVE NICOLOSI 00:22:36 07:17 min/mile 45 O/A M 1 CLAYTON
4 2985 STEVE BROGAN 00:22:46 07:20 min/mile 42 O/A M 2 GARNET VALLEY
5 3020 CATHERINE DISABATINO 00:24:34 07:55 min/mile 37 O/A F 3 WILMINGTON
6 3215 CURTIS SAMUELS 00:24:44 07:58 min/mile 59 O/A M 3 PENNSVILLE
7 3192 THOMAS FURMANAK 00:25:16 08:09 min/mile 31 1 M 4 KING OF PRUSSIA
8 3112 ADDYSON PINGITORE 00:25:54 08:21 min/mile 11 1 F 4 WILMINGTON
9 3178 KEVORK ZEIBARI 00:26:01 08:23 min/mile 16 1 M 5 AMBLER
10 3106 KRIS O'DONNELL 00:26:01 08:23 min/mile 40 1 F 5 BURLINGTON
11 3161 AMY WACHTER 00:26:44 08:37 min/mile 42 2 F 6 WILMINGTON
12 3170 KRISTIN WOOD 00:26:47 08:38 min/mile 33 1 F 7 WEST CHESTER
13 3043 JENNIE GRIFFITH 00:27:41 08:55 min/mile 32 2 F 8 WILMINGTON
14 2979 NATALIE AMALFITANO 00:27:44 08:56 min/mile 36 3 F 9 PEDRICKTOWN
15 3127 WENDY SARKISIAN 00:28:09 09:04 min/mile 42 3 F 10 BROOMALL
16 3194 HEATHER BEAUPARLANT 00:28:14 09:06 min/mile 40 4 F 11 MALVERN
17 3045 RYANN HALL 00:28:19 09:08 min/mile 31 4 F 12 DOWNINGTOWN
18 2984 BRADY BROGAN 00:28:32 09:12 min/mile 8 1 M 6 GARNET VALLEY
19 2995 REBEKAH BUSSOM 00:28:35 09:13 min/mile 42 5 F 13 HARLEYSVILLE
20 3147 PARRISH STAUFFER 00:28:52 09:18 min/mile 55 1 M 7 BOYERTOWN
21 2987 LAUREN BROWN 00:28:54 09:19 min/mile 39 5 F 14 LANSDALE
22 3067 TAMI KENNEY 00:28:59 09:20 min/mile 37 6 F 15 DOWNINGTOWN
23 2982 MEGAN BOLOGNONE 00:29:01 09:21 min/mile 39 7 F 16 PHILADELPHIA
24 3047 VANESSA HALLORAN 00:29:07 09:23 min/mile 33 8 F 17 HAVERTOWN
25 3193 DANA LAKNER 00:29:13 09:25 min/mile 31 9 F 18 KING OF PRUSSIA
26 3021 BRIDGET DIVELEY 00:29:14 09:25 min/mile 38 10 F 19 GARNET VALLEY
27 3095 ERICA MNICH 00:29:16 09:26 min/mile 24 1 F 20 WEST CHESTER
28 3034 ERIN GANNETT 00:29:17 09:26 min/mile 36 11 F 21 DOWNINGTOWN
29 3101 RYAN MULLOY 00:29:17 09:26 min/mile 37 2 M 8 MEDIA
30 3121 JOHN RICHARDSON 00:29:26 09:29 min/mile 41 1 M 9 DEVON
31 3090 KATIE MIGLIOCCO 00:29:31 09:31 min/mile 41 6 F 22 GARNET VALLEY
32 3143 RACHAEL STARK 00:29:37 09:33 min/mile 38 12 F 23 DEPTFORD
33 3000 KERRI CARR 00:29:56 09:39 min/mile 36 13 F 24 SPRINGFIELD
34 3003 ERICA CHADICK 00:29:57 09:39 min/mile 39 14 F 25 NEWARK
35 3135 WHITNEY SCHOCH 00:29:59 09:40 min/mile 34 15 F 26 WILMINGTON
36 3102 KIMBERLY MURO 00:30:09 09:43 min/mile 37 16 F 27 MOUNT EPHRAIM
37 3164 JIM WELCH 00:30:20 09:47 min/mile 37 3 M 10 EXTON
38 3068 MEGAN KRUSI 00:30:24 09:48 min/mile 41 7 F 28 EXTON
39 3001 STEPHANIE CARROZZA 00:30:31 09:50 min/mile 26 2 F 29 NORWOOD
40 3133 ALISON SCHOCH 00:30:45 09:55 min/mile 31 17 F 30 WILMINGTON
41 3076 MANDI LERMOND 00:30:47 09:55 min/mile 44 8 F 31 WILMINGTON
42 3018 ANDREW DIPROSPERO 00:31:01 10:00 min/mile 50 2 M 11 WEST CHESTER
43 3153 CADENCE TAYLOR 00:31:20 10:06 min/mile 15 1 F 32 LANCASTER
44 3044 DAN HALL 00:31:45 10:14 min/mile 31 4 M 12 DOWNINGTOWN
45 3070 SONJA KRUSI 00:31:56 10:18 min/mile 11 2 F 33 EXTON
46 3041 SHARON GLYNN 00:31:58 10:18 min/mile 28 3 F 34 DRUMS
47 3100 HEIDI MULHERIN 00:32:02 10:20 min/mile 32 18 F 35 WEST CHESTER
48 3097 BETH MOGCK 00:32:04 10:20 min/mile 57 1 F 36 BARRINGTON
49 3179 MIKAEL ZEIBARI 00:32:09 10:22 min/mile 11 2 M 13 AMBLER
50 3148 KATHLEEN STRATEMEYER 00:32:16 10:24 min/mile 40 9 F 37 DOWNINGTOWN
152 entrants …

Winners

Tip: Slide the results table left and right to view more.
Overall
Race Place Bib Name Chip Elapsed Pace Age Age Place Gender Gender Place City
3 3191 STEVE NICOLOSI 00:22:36 07:17 min/mile 45 O/A M 1 CLAYTON
4 2985 STEVE BROGAN 00:22:46 07:20 min/mile 42 O/A M 2 GARNET VALLEY
6 3215 CURTIS SAMUELS 00:24:44 07:58 min/mile 59 O/A M 3 PENNSVILLE
1 3088 SAMANTHA MCNALLY 00:22:13 07:10 min/mile 32 O/A F 1 LANCASTER
2 3141 CHARLENE SMITH 00:22:14 07:10 min/mile 35 O/A F 2 MOUNT JOY
5 3020 CATHERINE DISABATINO 00:24:34 07:55 min/mile 37 O/A F 3 WILMINGTON
1 - 14
Race Place Bib Name Chip Elapsed Pace Age Age Place Gender Gender Place City
18 2984 BRADY BROGAN 00:28:32 09:12 min/mile 8 1 M 6 GARNET VALLEY
49 3179 MIKAEL ZEIBARI 00:32:09 10:22 min/mile 11 2 M 13 AMBLER
109 3130 DYLAN SCHEELER 00:40:07 12:56 min/mile 8 3 M 20 HARLEYSVILLE
118 3163 JAMES RUSSELL WELCH 00:42:32 13:43 min/mile 6 4 M 21 EXTON
8 3112 ADDYSON PINGITORE 00:25:54 08:21 min/mile 11 1 F 4 WILMINGTON
45 3070 SONJA KRUSI 00:31:56 10:18 min/mile 11 2 F 33 EXTON
84 3053 KAITLYN HEJNAR 00:36:24 11:44 min/mile 14 3 F 66 PENNSBURG
140 3069 SIMONE KRUSI 00:54:26 17:33 min/mile 8 4 F 116 EXTON
15 - 19
Race Place Bib Name Chip Elapsed Pace Age Age Place Gender Gender Place City
9 3178 KEVORK ZEIBARI 00:26:01 08:23 min/mile 16 1 M 5 AMBLER
43 3153 CADENCE TAYLOR 00:31:20 10:06 min/mile 15 1 F 32 LANCASTER
149 3054 JADE HELLER 00:56:02 18:04 min/mile 15 2 F 125 EXTON
20 - 29
Race Place Bib Name Chip Elapsed Pace Age Age Place Gender Gender Place City
60 3212 JASON PENNEY 00:33:52 10:55 min/mile 21 1 M 14 COLLINGSWOOD
138 3011 ZARED DAVIDHEISER 00:53:11 17:09 min/mile 24 2 M 24 POTTSTOWN
27 3095 ERICA MNICH 00:29:16 09:26 min/mile 24 1 F 20 WEST CHESTER
39 3001 STEPHANIE CARROZZA 00:30:31 09:50 min/mile 26 2 F 29 NORWOOD
46 3041 SHARON GLYNN 00:31:58 10:18 min/mile 28 3 F 34 DRUMS
55 3073 JACQUI LANDMESSER 00:33:21 10:45 min/mile 26 4 F 42 KING OF PRUSSIA
57 3035 KRISTIN GARBER 00:33:30 10:48 min/mile 28 5 F 44 NEWARK
30 - 39
Race Place Bib Name Chip Elapsed Pace Age Age Place Gender Gender Place City
7 3192 THOMAS FURMANAK 00:25:16 08:09 min/mile 31 1 M 4 KING OF PRUSSIA
29 3101 RYAN MULLOY 00:29:17 09:26 min/mile 37 2 M 8 MEDIA
37 3164 JIM WELCH 00:30:20 09:47 min/mile 37 3 M 10 EXTON
44 3044 DAN HALL 00:31:45 10:14 min/mile 31 4 M 12 DOWNINGTOWN
95 3016 LANCE DICKER 00:37:18 12:01 min/mile 36 5 M 19 WILMINGTON
12 3170 KRISTIN WOOD 00:26:47 08:38 min/mile 33 1 F 7 WEST CHESTER
13 3043 JENNIE GRIFFITH 00:27:41 08:55 min/mile 32 2 F 8 WILMINGTON
14 2979 NATALIE AMALFITANO 00:27:44 08:56 min/mile 36 3 F 9 PEDRICKTOWN
17 3045 RYANN HALL 00:28:19 09:08 min/mile 31 4 F 12 DOWNINGTOWN
21 2987 LAUREN BROWN 00:28:54 09:19 min/mile 39 5 F 14 LANSDALE
40 - 49
Race Place Bib Name Chip Elapsed Pace Age Age Place Gender Gender Place City
30 3121 JOHN RICHARDSON 00:29:26 09:29 min/mile 41 1 M 9 DEVON
71 3113 AARON POLLACK 00:35:25 11:25 min/mile 41 2 M 17 NEW YORK
127 3177 ANDRE ZEIBARI 00:43:59 14:11 min/mile 47 3 M 22 AMBLER
10 3106 KRIS O'DONNELL 00:26:01 08:23 min/mile 40 1 F 5 BURLINGTON
11 3161 AMY WACHTER 00:26:44 08:37 min/mile 42 2 F 6 WILMINGTON
15 3127 WENDY SARKISIAN 00:28:09 09:04 min/mile 42 3 F 10 BROOMALL
16 3194 HEATHER BEAUPARLANT 00:28:14 09:06 min/mile 40 4 F 11 MALVERN
19 2995 REBEKAH BUSSOM 00:28:35 09:13 min/mile 42 5 F 13 HARLEYSVILLE
50 - 59
Race Place Bib Name Chip Elapsed Pace Age Age Place Gender Gender Place City
20 3147 PARRISH STAUFFER 00:28:52 09:18 min/mile 55 1 M 7 BOYERTOWN
42 3018 ANDREW DIPROSPERO 00:31:01 10:00 min/mile 50 2 M 11 WEST CHESTER
62 3150 ANGELO SUTERA 00:33:59 10:57 min/mile 54 3 M 15 GLEN MILLS
77 2977 JAMES ALDER 00:35:50 11:33 min/mile 54 4 M 18 WEST CHESTER
128 3168 MARK WIDDIS 00:45:14 14:35 min/mile 55 5 M 23 WEST CHESTER
48 3097 BETH MOGCK 00:32:04 10:20 min/mile 57 1 F 36 BARRINGTON
51 3019 CARLA DIPROSPERO 00:32:44 10:33 min/mile 50 2 F 38 WEST CHESTER
56 3074 JOAN LANDMESSER 00:33:24 10:46 min/mile 54 3 F 43 KING OF PRUSSIA
72 3065 SHARON JOHN 00:35:36 11:29 min/mile 53 4 F 55 GARNET VALLEY
73 3014 MARYANN DEVLIN 00:35:40 11:30 min/mile 54 5 F 56 MEDIA
60 - 69
Race Place Bib Name Chip Elapsed Pace Age Age Place Gender Gender Place City
69 3134 JEFFREY SCHOCH 00:34:56 11:16 min/mile 63 1 M 16 WILMINGTON
65 3042 DEB GOEDERT 00:34:49 11:13 min/mile 64 1 F 50 LINCOLN UNIVERSITY
125 2986 JUDY BROOMALL 00:43:54 14:09 min/mile 63 2 F 104 MEDIA
131 3046 CAROL HALLORAN 00:45:51 14:47 min/mile 63 3 F 108 MEDIA
143 2998 MARION CALANDRA 00:55:17 17:50 min/mile 63 4 F 119 JAMISON
147 3048 DEBORAH HARRISON 00:55:59 18:03 min/mile 60 5 F 123 WEST GROVE
70 - 98
Race Place Bib Name Chip Elapsed Pace Age Age Place Gender Gender Place City
115 3049 MARY LOU HARTZLER 00:41:07 13:15 min/mile 70 1 F 95 LANSDOWNE

Race Info

Participants:
150
Last Updated:
5/12/2019 10:17:17 AM

Results are preliminary for 3 days

Tip: Swipe the results table to view more.

Search for Name, Bib, City, State or Team
in the field above… by clicking the icon below…

Notes & Race Statistics

SUNDAY 5K - 150


Male
Total Finishers Avg Pace
24 10:44

Female
Total Finishers Avg Pace
126 12:07
Timed using RM Timing Systems
Take control of your event
A product of US Sports Timing

Have a question or need to make a correction?

Submit a Result Correction